Aérodrome :
LOGIN :

S'inscrire | Disclaimer

   EN    FR    IT 

 










Légende :    VFR   VFR Marginal   IFR   IFR Intensif   IFR Très Intensif
Visi : 
Plafond : 
>= 8 km
>= 3000ft
5 à 8 km
1000 à 3000 ft
1500m à 5 km
500 à 1000 ft
800 à 1500m
200 à 500 ft
< 800m
< 200 ft
Symboles :   Orages  Brouillard  Fortes neiges  Fortes précipitations  Vent > 20 kt
SIGMETs :   Divers  Orages  Givrage  Turbulence  Onde Orograph.  Cendres Volcan.







- Altitude de l'aérodrome : 2945 ft
- Code IATA : RGS


LEBG - Burgos

DERNIER METAR :
  • 220030Z AUTO 04004KT 340V080 9999 NCD 13/09 Q1016

METARs EXPIRÉS :
  • 220000Z AUTO 03008KT 010V090 9999 NCD 12/09 Q1016
  • 212330Z AUTO 03007KT 9999 NCD 12/09 Q1016
  • 212300Z AUTO 03009KT 9999 NCD 12/10 Q1016
  • 212230Z AUTO 04009KT 9999 NCD 13/10 Q1016
  • 212200Z AUTO 04009KT 9999 NCD 13/10 Q1016
  • 212130Z AUTO 04009KT 9999 NCD 14/11 Q1016

TAF TAF LEBG
Valide du 21 à 18h jusqu'au 22 à 03h UTC


211700Z 2118/2203 04014KT 9999 SCT050
Pas de NOTAMs connus pour ce terrain.



MET'MAP, la Météo Aéronautique d'un coup d'oeil ! - Copyright ORBIFLY Décembre 2007 - Disclaimer

ORBIFLY MET'MAP TEAM :

Programmation & Développement : Alexandra Zaïnal
Conception & Développement : Baudouin d'Aumeries
Co-Programmation & Développement : Marc-Olivier Méhu
Soutien technique & logistique : Manuel Goepfert

Contact : metmap@orbifly.com




SOURCES & CREDITS :

   NOAA